createdAt,value
2016-09-01T00:00:16.301Z,23.63
2016-09-01T00:00:38.135Z,23.66
2016-09-01T00:00:59.994Z,23.58
2016-09-01T00:01:22.005Z,23.56
2016-09-01T00:01:48.505Z,23.53
2016-09-01T00:02:10.262Z,23.59
2016-09-01T00:02:32.999Z,23.52
2016-09-01T00:02:54.796Z,23.53
2016-09-01T00:03:16.547Z,23.60
2016-09-01T00:03:38.290Z,23.57
2016-09-01T00:04:00.038Z,23.58
2016-09-01T00:04:21.843Z,23.70
2016-09-01T00:04:44.745Z,23.79
2016-09-01T00:05:11.267Z,23.91
2016-09-01T00:05:33.101Z,23.92
2016-09-01T00:05:54.906Z,23.96
2016-09-01T00:06:21.610Z,24.05
2016-09-01T00:06:43.546Z,24.10
2016-09-01T00:07:05.511Z,24.03
2016-09-01T00:07:27.545Z,23.99
2016-09-01T00:07:54.205Z,23.87
2016-09-01T00:08:16.054Z,23.87
2016-09-01T00:08:37.945Z,23.89
2016-09-01T00:09:04.560Z,23.86
2016-09-01T00:09:26.377Z,23.68
2016-09-01T00:09:48.141Z,23.54
2016-09-01T00:10:09.892Z,23.33
2016-09-01T00:10:36.489Z,23.19
2016-09-01T00:10:58.323Z,23.13
2016-09-01T00:11:21.084Z,23.15
2016-09-01T00:11:42.919Z,23.24
2016-09-01T00:12:05.962Z,23.26
2016-09-01T00:12:27.757Z,23.26
2016-09-01T00:12:55.319Z,23.28
2016-09-01T00:13:17.075Z,23.24
2016-09-01T00:13:38.834Z,23.25
2016-09-01T00:14:54.592Z,23.33
2016-09-01T00:15:16.361Z,23.25
2016-09-01T00:15:38.122Z,23.24
2016-09-01T00:15:59.879Z,23.23
2016-09-01T00:16:21.689Z,23.23
2016-09-01T00:16:43.430Z,23.39
2016-09-01T00:17:06.185Z,23.54
2016-09-01T00:18:04.829Z,23.57
2016-09-01T00:18:27.574Z,23.61
2016-09-01T00:18:49.325Z,23.45
2016-09-01T00:19:11.078Z,23.38
2016-09-01T00:19:37.616Z,23.33
2016-09-01T00:20:10.889Z,23.23
2016-09-01T00:20:39.993Z,23.07
2016-09-01T00:21:06.503Z,23.19
2016-09-01T00:21:29.263Z,23.13
2016-09-01T00:21:58.372Z,23.20
2016-09-01T00:22:20.333Z,23.26
2016-09-01T00:22:42.342Z,23.38
2016-09-01T00:23:35.872Z,23.62
2016-09-01T00:24:02.426Z,23.70
2016-09-01T00:24:26.954Z,23.74
2016-09-01T00:24:48.694Z,23.80
2016-09-01T00:25:10.518Z,23.79
2016-09-01T00:25:37.021Z,23.80
2016-09-01T00:26:03.523Z,23.66
2016-09-01T00:26:25.673Z,23.56
2016-09-01T00:26:47.411Z,23.37
2016-09-01T00:27:11.854Z,23.40
2016-09-01T00:27:36.173Z,23.28
2016-09-01T00:28:02.672Z,23.20
2016-09-01T00:28:30.006Z,23.12
2016-09-01T00:28:51.831Z,23.14
2016-09-01T00:29:18.326Z,23.20
2016-09-01T00:29:40.371Z,23.22
2016-09-01T00:30:02.116Z,23.34
2016-09-01T00:30:23.847Z,23.44
2016-09-01T00:30:48.413Z,23.56
2016-09-01T00:31:14.970Z,23.63
2016-09-01T00:31:36.822Z,23.57
2016-09-01T00:31:58.657Z,23.49
2016-09-01T00:32:23.254Z,23.46
2016-09-01T00:32:44.980Z,23.38
2016-09-01T00:33:06.727Z,23.37
2016-09-01T00:33:28.666Z,23.40
2016-09-01T00:33:53.043Z,23.35
2016-09-01T00:34:14.931Z,23.37
2016-09-01T00:34:41.566Z,23.48
2016-09-01T00:35:06.286Z,23.60
2016-09-01T00:35:54.547Z,23.62
2016-09-01T00:36:16.359Z,23.61
2016-09-01T00:36:40.945Z,23.67
2016-09-01T00:37:02.691Z,23.52
2016-09-01T00:37:25.443Z,23.26
2016-09-01T00:37:51.997Z,23.03
2016-09-01T00:38:14.000Z,22.97
2016-09-01T00:38:35.815Z,22.84
2016-09-01T00:38:57.668Z,22.83
2016-09-01T00:39:25.197Z,22.86
2016-09-01T00:39:51.719Z,22.99
2016-09-01T00:40:18.220Z,23.07
2016-09-01T00:40:39.968Z,23.07
2016-09-01T00:41:02.698Z,23.18
2016-09-01T00:41:24.435Z,23.34
2016-09-01T00:41:46.172Z,23.43
2016-09-01T00:42:09.002Z,23.38
2016-09-01T00:42:30.829Z,23.36
2016-09-01T00:42:52.670Z,23.49
2016-09-01T00:43:14.412Z,23.56
2016-09-01T00:43:36.180Z,23.59
2016-09-01T00:43:57.914Z,23.59
2016-09-01T00:44:19.718Z,23.39
2016-09-01T00:44:42.460Z,23.33
2016-09-01T00:45:05.242Z,23.41
2016-09-01T00:45:26.975Z,23.47
2016-09-01T00:45:54.487Z,23.50
2016-09-01T00:46:17.248Z,23.37
2016-09-01T00:47:05.492Z,23.51
2016-09-01T00:47:27.344Z,23.57
2016-09-01T00:47:49.078Z,23.62
2016-09-01T00:48:15.582Z,23.63
2016-09-01T00:48:37.380Z,23.53
2016-09-01T00:48:59.270Z,23.47
2016-09-01T00:49:22.015Z,23.34
2016-09-01T00:49:52.470Z,23.26
2016-09-01T00:50:14.784Z,23.31
2016-09-01T00:50:36.557Z,23.33
2016-09-01T00:50:58.278Z,23.44
2016-09-01T00:51:20.048Z,23.54
2016-09-01T00:51:42.762Z,23.41
2016-09-01T00:52:09.315Z,23.28
2016-09-01T00:52:31.094Z,23.25
2016-09-01T00:52:52.946Z,23.15
2016-09-01T00:53:19.504Z,23.19
2016-09-01T00:53:41.406Z,23.27
2016-09-01T00:54:03.207Z,23.34
2016-09-01T00:54:29.711Z,23.41
2016-09-01T00:54:51.453Z,23.46
2016-09-01T00:55:17.799Z,23.52
2016-09-01T00:55:39.673Z,23.54
2016-09-01T00:56:02.400Z,23.58
2016-09-01T00:56:24.119Z,23.56
2016-09-01T00:56:45.846Z,23.63
2016-09-01T00:57:07.638Z,23.58
2016-09-01T00:57:34.145Z,23.46
2016-09-01T00:57:56.861Z,23.34
2016-09-01T00:58:18.604Z,23.28
2016-09-01T00:58:40.403Z,23.28
2016-09-01T00:59:04.171Z,23.39
2016-09-01T00:59:25.972Z,23.30
2016-09-01T00:59:47.849Z,23.26
2016-09-01T01:00:12.563Z,23.22
2016-09-01T01:00:39.056Z,23.12
2016-09-01T01:01:08.369Z,23.10
2016-09-01T01:01:30.118Z,23.13
2016-09-01T01:01:51.846Z,23.24
2016-09-01T01:02:18.346Z,23.39
2016-09-01T01:03:11.414Z,23.37
2016-09-01T01:03:34.147Z,23.29
2016-09-01T01:03:55.921Z,23.34
2016-09-01T01:04:27.280Z,23.35
2016-09-01T01:04:49.047Z,23.43
2016-09-01T01:05:16.554Z,23.50
2016-09-01T01:05:38.297Z,23.57
2016-09-01T01:06:00.045Z,23.53
2016-09-01T01:06:21.782Z,23.51
2016-09-01T01:06:44.528Z,23.47
2016-09-01T01:07:06.278Z,23.41
2016-09-01T01:07:28.144Z,23.35
2016-09-01T01:07:49.972Z,23.42
2016-09-01T01:08:11.802Z,23.52
2016-09-01T01:08:33.526Z,23.62
2016-09-01T01:08:55.283Z,23.62
2016-09-01T01:09:43.383Z,23.47
2016-09-01T01:10:08.234Z,23.36
2016-09-01T01:10:29.974Z,23.18
2016-09-01T01:10:51.703Z,23.04
2016-09-01T01:11:13.427Z,23.03
2016-09-01T01:11:35.162Z,23.01
2016-09-01T01:11:56.937Z,23.02
2016-09-01T01:12:21.489Z,23.03
2016-09-01T01:12:43.216Z,23.12
2016-09-01T01:13:09.712Z,23.27
2016-09-01T01:13:34.249Z,23.41
2016-09-01T01:13:55.984Z,23.49
2016-09-01T01:14:20.441Z,23.54
2016-09-01T01:14:43.277Z,23.60
2016-09-01T01:15:05.079Z,23.67
2016-09-01T01:15:29.369Z,23.74
2016-09-01T01:15:51.146Z,23.74
2016-09-01T01:16:12.877Z,23.77
2016-09-01T01:16:34.605Z,23.77
2016-09-01T01:16:56.323Z,23.80
2016-09-01T01:17:20.576Z,23.81
2016-09-01T01:17:42.299Z,23.71
2016-09-01T01:18:06.720Z,23.49
2016-09-01T01:18:28.505Z,23.34
2016-09-01T01:18:52.867Z,23.20
2016-09-01T01:19:14.592Z,23.23
2016-09-01T01:19:39.024Z,23.26
2016-09-01T01:20:00.784Z,23.37
2016-09-01T01:20:22.515Z,23.28
2016-09-01T01:20:44.240Z,23.27
2016-09-01T01:21:05.968Z,23.26
2016-09-01T01:21:27.683Z,23.28
2016-09-01T01:21:49.430Z,23.37
2016-09-01T01:22:13.865Z,23.41
2016-09-01T01:22:35.589Z,23.48
2016-09-01T01:22:57.305Z,23.60
2016-09-01T01:23:19.062Z,23.63
2016-09-01T01:23:50.336Z,23.64
2016-09-01T01:24:12.064Z,23.68
2016-09-01T01:24:38.559Z,23.65
2016-09-01T01:25:00.340Z,23.51
2016-09-01T01:25:26.838Z,23.40
2016-09-01T01:26:16.041Z,23.55
2016-09-01T01:27:04.372Z,23.55
2016-09-01T01:27:26.105Z,23.55
2016-09-01T01:27:47.836Z,23.58
2016-09-01T01:28:09.562Z,23.42
2016-09-01T01:28:33.865Z,23.41
2016-09-01T01:28:55.651Z,23.47
2016-09-01T01:29:17.376Z,23.52
2016-09-01T01:29:39.094Z,23.55
2016-09-01T01:30:00.841Z,23.56
2016-09-01T01:30:22.566Z,23.58
2016-09-01T01:30:44.339Z,23.60
2016-09-01T01:31:06.313Z,23.45
2016-09-01T01:31:34.806Z,23.19
2016-09-01T01:31:56.535Z,23.07
2016-09-01T01:32:18.317Z,22.89
2016-09-01T01:32:40.044Z,22.82
2016-09-01T01:33:02.890Z,22.78
2016-09-01T01:33:51.094Z,22.68
2016-09-01T01:34:12.815Z,22.64
2016-09-01T01:35:01.050Z,22.62
2016-09-01T01:35:22.810Z,22.62
2016-09-01T01:35:44.963Z,22.67
2016-09-01T01:36:07.696Z,22.81
2016-09-01T01:36:31.455Z,23.06
2016-09-01T01:36:53.345Z,23.17
2016-09-01T01:37:16.118Z,23.26
2016-09-01T01:37:37.840Z,23.22
2016-09-01T01:37:59.568Z,23.08
2016-09-01T01:38:47.894Z,22.88
2016-09-01T01:39:09.622Z,22.84
2016-09-01T01:39:31.350Z,22.75
2016-09-01T01:39:55.856Z,22.64
2016-09-01T01:40:20.262Z,22.64
2016-09-01T01:40:42.025Z,22.71
2016-09-01T01:41:03.738Z,22.72
2016-09-01T01:41:25.479Z,22.70
2016-09-01T01:41:50.044Z,22.67
2016-09-01T01:42:19.117Z,22.61
2016-09-01T01:42:40.838Z,22.59
2016-09-01T01:43:02.569Z,22.57
2016-09-01T01:43:24.893Z,22.59
2016-09-01T01:43:49.232Z,22.67
2016-09-01T01:44:37.251Z,22.59
2016-09-01T01:44:59.043Z,22.69
2016-09-01T01:45:20.777Z,22.88
2016-09-01T01:45:42.515Z,23.06
2016-09-01T01:46:04.288Z,22.94
2016-09-01T01:46:26.186Z,22.80
2016-09-01T01:46:50.921Z,22.74
2016-09-01T01:47:17.769Z,22.66
2016-09-01T01:47:42.141Z,22.68
2016-09-01T01:48:35.120Z,22.67
2016-09-01T01:48:56.839Z,22.67
2016-09-01T01:49:18.624Z,22.76
2016-09-01T01:49:40.359Z,22.92
2016-09-01T01:50:02.083Z,23.05
2016-09-01T01:50:50.374Z,23.22
2016-09-01T01:51:12.090Z,23.29
2016-09-01T01:51:36.537Z,23.27
2016-09-01T01:51:58.275Z,23.15
2016-09-01T01:52:20.192Z,23.06
2016-09-01T01:52:41.964Z,23.02
2016-09-01T01:53:08.467Z,23.01
2016-09-01T01:53:30.328Z,22.94
2016-09-01T01:53:52.054Z,22.96
2016-09-01T01:54:13.789Z,23.09
2016-09-01T01:54:36.508Z,23.18
2016-09-01T01:54:58.243Z,23.06
2016-09-01T01:55:24.732Z,23.10
2016-09-01T01:55:46.464Z,23.11
2016-09-01T01:56:12.969Z,22.79
2016-09-01T01:57:01.191Z,22.71
2016-09-01T01:57:23.001Z,22.61
2016-09-01T01:57:45.801Z,22.56
2016-09-01T01:58:07.580Z,22.71
2016-09-01T01:58:29.331Z,22.83
2016-09-01T01:58:53.924Z,22.79
2016-09-01T01:59:15.647Z,22.71
2016-09-01T01:59:42.208Z,22.58
2016-09-01T02:00:04.176Z,22.62
2016-09-01T02:00:52.409Z,22.58
2016-09-01T02:01:14.371Z,22.55
2016-09-01T02:01:36.399Z,22.73
2016-09-01T02:01:59.258Z,22.78
2016-09-01T02:02:25.740Z,22.83
2016-09-01T02:02:48.602Z,22.91
2016-09-01T02:03:10.400Z,22.99
2016-09-01T02:03:37.913Z,23.02
2016-09-01T02:03:59.683Z,23.15
2016-09-01T02:04:21.407Z,23.13
2016-09-01T02:04:44.153Z,23.02
2016-09-01T02:05:05.878Z,22.85
2016-09-01T02:05:32.364Z,22.95
2016-09-01T02:05:54.121Z,23.04
2016-09-01T02:06:19.377Z,23.10
2016-09-01T02:06:42.261Z,23.09
2016-09-01T02:07:08.784Z,23.16
2016-09-01T02:07:35.110Z,23.15
2016-09-01T02:07:56.966Z,23.15
2016-09-01T02:08:18.700Z,23.00
2016-09-01T02:08:40.444Z,22.79
2016-09-01T02:09:04.797Z,22.60
2016-09-01T02:09:26.535Z,22.47
2016-09-01T02:09:48.256Z,22.45
2016-09-01T02:10:09.972Z,22.40
2016-09-01T02:10:31.712Z,22.31
2016-09-01T02:10:53.484Z,22.27
2016-09-01T02:11:15.216Z,22.32
2016-09-01T02:11:36.943Z,22.32
2016-09-01T02:11:58.672Z,22.36
2016-09-01T02:12:20.406Z,22.36
2016-09-01T02:12:46.976Z,22.34
2016-09-01T02:13:11.504Z,22.38
2016-09-01T02:13:38.005Z,22.37
2016-09-01T02:13:59.737Z,22.38
2016-09-01T02:14:24.015Z,22.41
2016-09-01T02:14:45.753Z,22.35
2016-09-01T02:15:07.596Z,22.38
2016-09-01T02:15:29.341Z,22.40
2016-09-01T02:15:51.065Z,22.39
2016-09-01T02:16:12.874Z,22.38
2016-09-01T02:16:47.004Z,22.46
2016-09-01T02:17:09.011Z,22.46
2016-09-01T02:17:33.791Z,22.44
2016-09-01T02:18:00.295Z,22.42
2016-09-01T02:18:48.637Z,22.52
2016-09-01T02:19:10.419Z,22.54
2016-09-01T02:19:32.182Z,22.62
2016-09-01T02:20:01.545Z,22.69
2016-09-01T02:20:28.041Z,22.84
2016-09-01T02:20:49.772Z,22.81
2016-09-01T02:21:16.483Z,22.79
2016-09-01T02:21:38.207Z,22.92
2016-09-01T02:21:59.951Z,23.00
2016-09-01T02:22:21.696Z,22.92
2016-09-01T02:22:50.406Z,22.96
2016-09-01T02:23:48.218Z,23.00
2016-09-01T02:24:36.447Z,23.05
2016-09-01T02:25:06.790Z,23.08
2016-09-01T02:25:28.508Z,22.89
2016-09-01T02:25:50.266Z,22.67
2016-09-01T02:26:13.004Z,22.23
2016-09-01T02:27:01.331Z,21.95
2016-09-01T02:27:23.312Z,21.74
2016-09-01T02:27:45.088Z,21.71
2016-09-01T02:28:06.822Z,21.73
2016-09-01T02:28:28.592Z,21.74
2016-09-01T02:28:51.354Z,21.86
2016-09-01T02:29:13.084Z,21.93
2016-09-01T02:29:34.847Z,21.95
2016-09-01T02:29:56.658Z,22.01
2016-09-01T02:30:18.598Z,21.91
2016-09-01T02:30:40.377Z,21.88
2016-09-01T02:31:02.105Z,21.87
2016-09-01T02:31:23.833Z,21.89
2016-09-01T02:31:45.584Z,21.95
2016-09-01T02:32:10.989Z,21.95
2016-09-01T02:33:04.000Z,22.25
2016-09-01T02:33:25.724Z,22.41
2016-09-01T02:33:47.529Z,22.48
2016-09-01T02:34:09.331Z,22.48
2016-09-01T02:34:31.089Z,22.55
2016-09-01T02:34:52.838Z,22.50
2016-09-01T02:35:16.608Z,22.32
2016-09-01T02:35:47.874Z,22.30
2016-09-01T02:36:09.612Z,22.34
2016-09-01T02:36:31.356Z,22.26
2016-09-01T02:36:54.080Z,22.17
2016-09-01T02:37:20.662Z,22.19
2016-09-01T02:37:42.416Z,22.34
2016-09-01T02:38:04.169Z,22.46
2016-09-01T02:38:25.910Z,22.58
2016-09-01T02:38:50.803Z,22.75
2016-09-01T02:39:12.530Z,22.83
2016-09-01T02:39:36.931Z,22.90
2016-09-01T02:40:03.485Z,22.94
2016-09-01T02:40:51.843Z,22.73
2016-09-01T02:41:13.622Z,22.61
2016-09-01T02:41:35.357Z,22.55
2016-09-01T02:41:57.173Z,22.37
2016-09-01T02:42:18.925Z,22.27
2016-09-01T02:42:40.659Z,22.27
2016-09-01T02:43:07.149Z,22.25
2016-09-01T02:43:28.893Z,22.13
2016-09-01T02:43:54.192Z,22.07
2016-09-01T02:44:18.509Z,22.24
2016-09-01T02:44:40.320Z,22.32
2016-09-01T02:45:09.763Z,22.16
2016-09-01T02:45:36.258Z,22.21
2016-09-01T02:46:00.899Z,22.16
2016-09-01T02:46:22.640Z,22.15
2016-09-01T02:46:44.367Z,22.19
2016-09-01T02:47:10.717Z,22.15
2016-09-01T02:48:01.674Z,22.13
2016-09-01T02:48:28.194Z,22.32
2016-09-01T02:48:49.916Z,22.47
2016-09-01T02:49:11.657Z,22.60
2016-09-01T02:49:36.540Z,22.43
2016-09-01T02:50:03.074Z,22.31
2016-09-01T02:50:24.829Z,22.39
2016-09-01T02:50:46.582Z,22.45
2016-09-01T02:51:13.126Z,22.32
2016-09-01T02:51:34.968Z,22.18
2016-09-01T02:52:28.985Z,22.09
2016-09-01T02:53:00.324Z,22.01
2016-09-01T02:53:25.723Z,21.91
2016-09-01T02:53:51.157Z,21.98
2016-09-01T02:54:44.309Z,21.80
2016-09-01T02:55:10.875Z,21.84
2016-09-01T02:55:32.760Z,21.98
2016-09-01T02:55:59.345Z,22.21
2016-09-01T02:56:21.188Z,22.39
2016-09-01T02:57:20.081Z,22.68
2016-09-01T02:57:42.021Z,22.53
2016-09-01T02:58:06.670Z,22.30
2016-09-01T02:58:28.562Z,22.15
2016-09-01T02:58:55.173Z,22.11
2016-09-01T02:59:17.985Z,22.08
2016-09-01T02:59:39.807Z,22.09
2016-09-01T03:00:01.623Z,22.27
2016-09-01T03:00:23.444Z,22.35
2016-09-01T03:00:45.263Z,22.44
2016-09-01T03:01:07.077Z,22.53
2016-09-01T03:01:28.952Z,22.63
2016-09-01T03:01:50.763Z,22.68
2016-09-01T03:02:12.763Z,22.58
2016-09-01T03:02:34.590Z,22.59
2016-09-01T03:02:56.433Z,22.62
2016-09-01T03:03:18.261Z,22.67
2016-09-01T03:03:44.825Z,22.64
2016-09-01T03:04:11.383Z,22.58
2016-09-01T03:04:33.425Z,22.59
2016-09-01T03:04:55.237Z,22.60
2016-09-01T03:05:17.311Z,22.46
2016-09-01T03:05:41.839Z,22.35
2016-09-01T03:06:06.165Z,22.20
2016-09-01T03:06:28.024Z,22.12
2016-09-01T03:06:49.858Z,22.12
2016-09-01T03:07:14.667Z,22.18
2016-09-01T03:07:36.491Z,22.10
2016-09-01T03:08:00.849Z,22.09
2016-09-01T03:08:22.760Z,22.15
2016-09-01T03:08:45.695Z,22.26
2016-09-01T03:09:07.800Z,22.41
2016-09-01T03:09:29.667Z,22.54
2016-09-01T03:09:56.222Z,22.66
2016-09-01T03:10:22.808Z,22.70
2016-09-01T03:10:44.629Z,22.59
2016-09-01T03:11:06.519Z,22.45
2016-09-01T03:11:35.862Z,22.31
2016-09-01T03:11:57.709Z,22.25
2016-09-01T03:12:24.064Z,22.25
2016-09-01T03:12:45.814Z,22.21
2016-09-01T03:13:16.905Z,22.13
2016-09-01T03:13:39.763Z,21.96
2016-09-01T03:14:07.284Z,21.91
2016-09-01T03:14:41.388Z,21.83
2016-09-01T03:15:04.342Z,21.85
2016-09-01T03:15:26.086Z,21.87
2016-09-01T03:15:52.599Z,21.91
2016-09-01T03:16:41.884Z,22.01
2016-09-01T03:17:04.656Z,22.01
2016-09-01T03:17:26.449Z,22.08
2016-09-01T03:17:55.625Z,22.27
2016-09-01T03:18:17.446Z,22.39
2016-09-01T03:18:40.176Z,22.55
2016-09-01T03:19:03.021Z,22.61
2016-09-01T03:19:29.516Z,22.64
2016-09-01T03:19:52.298Z,22.57
2016-09-01T03:20:14.048Z,22.53
2016-09-01T03:20:35.811Z,22.48
2016-09-01T03:20:58.556Z,22.58
2016-09-01T03:21:26.051Z,22.61
2016-09-01T03:22:14.279Z,22.60
2016-09-01T03:22:36.035Z,22.55
2016-09-01T03:22:57.773Z,22.29
2016-09-01T03:23:19.494Z,22.00
2016-09-01T03:23:41.219Z,21.85
2016-09-01T03:24:04.000Z,21.75
2016-09-01T03:24:25.765Z,21.71
2016-09-01T03:24:47.593Z,21.71
2016-09-01T03:25:14.051Z,21.81
2016-09-01T03:25:36.781Z,21.84
2016-09-01T03:25:58.631Z,21.80
2016-09-01T03:26:20.413Z,21.81
2016-09-01T03:26:42.138Z,21.85
2016-09-01T03:27:03.973Z,21.86
2016-09-01T03:27:25.801Z,21.92
2016-09-01T03:27:48.553Z,22.07
2016-09-01T03:28:11.284Z,22.13
2016-09-01T03:28:35.990Z,22.16
2016-09-01T03:28:57.743Z,22.25
2016-09-01T03:29:22.123Z,22.33
2016-09-01T03:29:48.627Z,22.44
2016-09-01T03:30:10.486Z,22.50
2016-09-01T03:30:38.076Z,22.50
2016-09-01T03:31:32.118Z,22.24
2016-09-01T03:31:53.859Z,22.14
2016-09-01T03:32:15.581Z,22.04
2016-09-01T03:32:38.467Z,21.98
2016-09-01T03:33:00.256Z,21.90
2016-09-01T03:33:22.989Z,21.89
2016-09-01T03:33:44.924Z,21.98
2016-09-01T03:34:06.688Z,21.97
2016-09-01T03:34:33.180Z,22.11
2016-09-01T03:34:59.692Z,22.28
2016-09-01T03:35:23.440Z,22.46
2016-09-01T03:35:46.976Z,22.56
2016-09-01T03:36:08.729Z,22.64
2016-09-01T03:36:36.247Z,22.70
2016-09-01T03:37:02.736Z,22.69
2016-09-01T03:37:28.096Z,22.63
2016-09-01T03:37:49.843Z,22.41
2016-09-01T03:38:11.561Z,22.05
2016-09-01T03:38:36.087Z,21.92
2016-09-01T03:39:00.393Z,22.04
2016-09-01T03:39:24.745Z,22.13
2016-09-01T03:39:54.080Z,22.23
2016-09-01T03:40:20.570Z,22.17
2016-09-01T03:40:43.318Z,21.97
2016-09-01T03:41:07.578Z,21.87
2016-09-01T03:41:29.411Z,21.82
2016-09-01T03:41:51.309Z,21.69
2016-09-01T03:42:13.219Z,21.54
2016-09-01T03:43:01.325Z,21.49
2016-09-01T03:43:27.897Z,21.51
2016-09-01T03:43:49.641Z,21.59
2016-09-01T03:44:16.201Z,21.63
2016-09-01T03:44:37.948Z,21.58
2016-09-01T03:44:59.673Z,21.55
2016-09-01T03:45:26.167Z,21.47
2016-09-01T03:45:50.663Z,21.45
2016-09-01T03:46:41.674Z,21.57
2016-09-01T03:47:03.421Z,21.64
2016-09-01T03:47:25.168Z,21.60
2016-09-01T03:47:49.891Z,21.62
2016-09-01T03:48:16.752Z,21.55
2016-09-01T03:48:38.563Z,21.58
2016-09-01T03:49:03.405Z,21.60
2016-09-01T03:49:29.977Z,21.68
2016-09-01T03:49:51.715Z,21.80
2016-09-01T03:50:13.571Z,21.96
2016-09-01T03:50:35.372Z,22.08
2016-09-01T03:50:57.176Z,22.12
2016-09-01T03:51:19.130Z,22.11
2016-09-01T03:51:41.949Z,22.11
2016-09-01T03:52:06.630Z,22.00
2016-09-01T03:52:28.380Z,21.97
2016-09-01T03:52:52.703Z,22.01
2016-09-01T03:53:40.951Z,22.26
2016-09-01T03:54:02.691Z,22.34
2016-09-01T03:54:24.451Z,22.39
2016-09-01T03:54:46.174Z,22.49
2016-09-01T03:55:13.290Z,22.56
2016-09-01T03:55:35.026Z,22.64
2016-09-01T03:55:59.642Z,22.59
2016-09-01T03:56:21.584Z,22.63
2016-09-01T03:56:43.556Z,22.66
2016-09-01T03:57:05.414Z,22.67
2016-09-01T03:57:27.206Z,22.65
2016-09-01T03:57:51.619Z,22.54
2016-09-01T03:58:13.475Z,22.39
2016-09-01T03:58:35.802Z,22.38
2016-09-01T03:58:58.602Z,22.47
2016-09-01T03:59:20.329Z,22.42
2016-09-01T03:59:42.058Z,22.31
2016-09-01T04:00:03.856Z,22.31
2016-09-01T04:00:25.583Z,22.37
2016-09-01T04:00:47.328Z,22.48
2016-09-01T04:01:09.111Z,22.42
2016-09-01T04:01:35.462Z,22.25
2016-09-01T04:01:57.188Z,22.15
2016-09-01T04:02:18.928Z,22.16
2016-09-01T04:02:40.700Z,22.12
2016-09-01T04:03:02.441Z,22.16
2016-09-01T04:03:24.213Z,22.28
2016-09-01T04:04:18.318Z,22.36
2016-09-01T04:04:40.051Z,22.25
2016-09-01T04:05:06.678Z,22.16
2016-09-01T04:05:28.290Z,22.17
2016-09-01T04:05:50.035Z,22.09
2016-09-01T04:06:16.525Z,22.04
2016-09-01T04:06:43.103Z,22.03
2016-09-01T04:07:04.973Z,22.07
2016-09-01T04:07:29.510Z,22.21
2016-09-01T04:08:03.475Z,22.32
2016-09-01T04:08:34.848Z,22.38
2016-09-01T04:09:01.341Z,22.37
2016-09-01T04:09:26.086Z,22.34
2016-09-01T04:09:47.817Z,22.38
2016-09-01T04:10:09.632Z,22.36
2016-09-01T04:10:34.060Z,22.32
2016-09-01T04:10:55.887Z,22.38
2016-09-01T04:11:17.629Z,22.47
2016-09-01T04:11:42.064Z,22.56
2016-09-01T04:12:06.396Z,22.56
2016-09-01T04:12:28.131Z,22.46
2016-09-01T04:12:49.875Z,22.36
2016-09-01T04:13:14.445Z,22.28
2016-09-01T04:13:36.176Z,22.26
2016-09-01T04:13:57.911Z,22.30
2016-09-01T04:14:19.664Z,22.28
2016-09-01T04:15:18.109Z,22.24
2016-09-01T04:15:39.888Z,22.18
2016-09-01T04:16:32.886Z,22.25
2016-09-01T04:16:54.611Z,22.07
2016-09-01T04:17:16.333Z,21.95
2016-09-01T04:17:38.051Z,21.82
2016-09-01T04:17:59.782Z,21.74
2016-09-01T04:18:21.507Z,21.64
2016-09-01T04:18:43.270Z,21.70
2016-09-01T04:19:04.998Z,21.82
2016-09-01T04:19:26.735Z,21.86
2016-09-01T04:19:48.451Z,21.97
2016-09-01T04:20:10.180Z,21.87
2016-09-01T04:20:31.971Z,21.69
2016-09-01T04:20:53.689Z,21.53
2016-09-01T04:21:15.414Z,21.45
2016-09-01T04:21:37.155Z,21.40
2016-09-01T04:21:58.877Z,21.36
2016-09-01T04:22:20.615Z,21.33
2016-09-01T04:22:42.342Z,21.36
2016-09-01T04:23:04.071Z,21.30
2016-09-01T04:23:25.795Z,21.30
2016-09-01T04:23:47.513Z,21.34
2016-09-01T04:24:09.232Z,21.32
2016-09-01T04:24:30.966Z,21.40
2016-09-01T04:24:52.685Z,21.41
2016-09-01T04:25:14.406Z,21.42
2016-09-01T04:25:36.127Z,21.40
2016-09-01T04:25:57.846Z,21.40
2016-09-01T04:26:19.574Z,21.46
2016-09-01T04:26:41.297Z,21.41
2016-09-01T04:27:03.014Z,21.41
2016-09-01T04:27:24.735Z,21.47
2016-09-01T04:27:46.458Z,21.45
2016-09-01T04:28:08.183Z,21.44
2016-09-01T04:28:29.904Z,21.36
2016-09-01T04:28:51.641Z,21.31
2016-09-01T04:29:13.357Z,21.25
2016-09-01T04:29:35.082Z,21.41
2016-09-01T04:29:56.799Z,21.56
2016-09-01T04:30:18.602Z,21.65
2016-09-01T04:30:40.321Z,21.60
2016-09-01T04:31:02.041Z,21.69
2016-09-01T04:31:23.772Z,21.80
2016-09-01T04:31:45.481Z,21.91
2016-09-01T04:32:07.213Z,21.78
2016-09-01T04:32:28.945Z,21.59
2016-09-01T04:32:50.659Z,21.47
2016-09-01T04:33:12.377Z,21.37
2016-09-01T04:33:34.096Z,21.40
2016-09-01T04:33:55.818Z,21.39
2016-09-01T04:34:17.539Z,21.37
2016-09-01T04:34:44.029Z,21.34
2016-09-01T04:35:06.016Z,21.29
2016-09-01T04:35:27.735Z,21.20
2016-09-01T04:35:49.453Z,21.19
2016-09-01T04:36:11.181Z,21.28
2016-09-01T04:36:32.905Z,21.34
2016-09-01T04:36:54.727Z,21.36
2016-09-01T04:37:16.461Z,21.39
2016-09-01T04:37:38.179Z,21.41
2016-09-01T04:37:59.917Z,21.45
2016-09-01T04:38:21.638Z,21.52
2016-09-01T04:38:43.360Z,21.69
2016-09-01T04:39:05.073Z,21.62
2016-09-01T04:39:26.803Z,21.55
2016-09-01T04:39:48.524Z,21.51
2016-09-01T04:40:10.259Z,21.37
2016-09-01T04:40:31.978Z,21.24
2016-09-01T04:40:53.709Z,21.16
2016-09-01T04:41:15.421Z,21.11
2016-09-01T04:41:37.149Z,21.05
2016-09-01T04:41:58.871Z,21.10
2016-09-01T04:42:20.586Z,21.03
2016-09-01T04:42:42.313Z,20.97
2016-09-01T04:43:04.036Z,20.98
2016-09-01T04:43:25.773Z,20.97
2016-09-01T04:43:47.491Z,20.91
2016-09-01T04:44:09.210Z,20.90
2016-09-01T04:44:30.937Z,20.91
2016-09-01T04:44:52.665Z,20.94
2016-09-01T04:45:14.435Z,20.96
2016-09-01T04:45:36.153Z,20.97
2016-09-01T04:45:57.875Z,21.00
2016-09-01T04:46:19.606Z,20.99
2016-09-01T04:46:41.325Z,20.99
2016-09-01T04:47:03.053Z,21.06
2016-09-01T04:47:24.895Z,21.16
2016-09-01T04:47:46.633Z,21.18
2016-09-01T04:48:08.352Z,21.19
2016-09-01T04:48:30.074Z,21.37
2016-09-01T04:48:51.811Z,21.58
2016-09-01T04:49:13.529Z,21.77
2016-09-01T04:49:35.280Z,21.81
2016-09-01T04:49:56.992Z,21.83
2016-09-01T04:50:18.733Z,21.87
2016-09-01T04:50:40.438Z,21.94
2016-09-01T04:51:02.172Z,21.94
2016-09-01T04:51:23.885Z,21.96
2016-09-01T04:51:45.618Z,21.94
2016-09-01T04:52:07.347Z,21.94
2016-09-01T04:52:29.085Z,21.96
2016-09-01T04:52:50.809Z,21.82
2016-09-01T04:53:12.544Z,21.57
2016-09-01T04:53:34.263Z,21.32
2016-09-01T04:53:56.000Z,21.21
2016-09-01T04:54:17.719Z,21.19
2016-09-01T04:54:39.455Z,21.18
2016-09-01T04:55:01.175Z,21.15
2016-09-01T04:55:23.488Z,21.16
2016-09-01T04:55:45.215Z,21.20
2016-09-01T04:56:06.943Z,21.29
2016-09-01T04:56:29.702Z,21.25
2016-09-01T04:56:51.424Z,21.18
2016-09-01T04:57:13.139Z,21.15
2016-09-01T04:57:34.867Z,21.17
2016-09-01T04:57:56.597Z,21.20
2016-09-01T04:58:18.339Z,21.20
2016-09-01T04:58:40.058Z,21.23
2016-09-01T04:59:01.770Z,21.14
2016-09-01T04:59:23.494Z,21.14
2016-09-01T04:59:45.225Z,21.12
2016-09-01T05:00:06.944Z,21.26
2016-09-01T05:00:28.662Z,21.06
2016-09-01T05:00:50.396Z,20.99
2016-09-01T05:01:12.125Z,21.01
2016-09-01T05:01:33.846Z,21.04
2016-09-01T05:01:55.571Z,21.02
2016-09-01T05:02:17.305Z,20.93
2016-09-01T05:02:39.028Z,20.87
2016-09-01T05:03:00.775Z,20.82
2016-09-01T05:03:22.479Z,20.84
2016-09-01T05:03:44.204Z,21.00
2016-09-01T05:04:05.927Z,21.20
2016-09-01T05:04:27.651Z,21.42
2016-09-01T05:04:49.379Z,21.59
2016-09-01T05:05:11.117Z,21.69
2016-09-01T05:05:32.835Z,21.72
2016-09-01T05:05:54.554Z,21.58
2016-09-01T05:06:16.275Z,21.44
2016-09-01T05:06:37.999Z,21.37
2016-09-01T05:06:59.725Z,21.28
2016-09-01T05:07:21.440Z,21.22
2016-09-01T05:07:43.162Z,21.18
2016-09-01T05:08:04.877Z,21.07
2016-09-01T05:08:26.602Z,21.02
2016-09-01T05:08:48.336Z,20.96
2016-09-01T05:09:10.061Z,21.02
2016-09-01T05:09:31.792Z,21.05
2016-09-01T05:09:53.513Z,21.01
2016-09-01T05:10:15.741Z,21.06
2016-09-01T05:10:37.455Z,21.12
2016-09-01T05:10:59.181Z,21.14
2016-09-01T05:11:20.896Z,21.24
2016-09-01T05:11:42.611Z,21.41
2016-09-01T05:12:30.825Z,21.67
2016-09-01T05:12:52.540Z,21.57
2016-09-01T05:13:14.256Z,21.44
2016-09-01T05:13:35.978Z,21.28